Time;durP1;ratioP1;P1;durP2;ratioP2;P2;SDS_P1;SDS_P2;PMS_P1;PMS_P2;Temp;Humidity;BMP_temperature;BMP_pressure;BME280_temperature;BME280_humidity;BME280_pressure;Samples;Min_cycle;Max_cycle;Signal;HPM_P1;HPM_P2
2022/04/26 03:37:20;;;;;;;34.60;17.35;;;5.50;99.90;;;;;;4979451;28;20080;-83
2022/04/26 03:39:46;;;;;;;42.92;18.83;;;5.50;99.90;;;;;;4979718;28;20042;-83
2022/04/26 03:42:12;;;;;;;38.28;18.02;;;5.50;99.90;;;;;;4979550;28;20038;-83
2022/04/26 03:44:38;;;;;;;35.15;18.25;;;5.60;99.90;;;;;;4979352;28;20038;-83
2022/04/26 03:47:04;;;;;;;29.60;15.57;;;5.60;99.90;;;;;;4979268;28;20086;-84
2022/04/26 03:49:29;;;;;;;31.50;17.23;;;5.60;99.90;;;;;;4979793;28;20086;-83
2022/04/26 03:51:55;;;;;;;39.88;18.02;;;5.60;99.90;;;;;;4979412;28;20122;-83
2022/04/26 03:54:22;;;;;;;36.97;16.48;;;5.70;99.90;;;;;;4979633;28;20042;-84
2022/04/26 03:56:48;;;;;;;31.85;17.20;;;5.70;99.90;;;;;;4978807;28;20062;-83
2022/04/26 03:59:13;;;;;;;31.77;16.35;;;5.70;99.90;;;;;;4979201;28;20077;-83
2022/04/26 04:01:39;;;;;;;38.13;16.77;;;5.70;99.90;;;;;;4962190;28;20051;-83
2022/04/26 04:04:05;;;;;;;28.67;14.75;;;5.70;99.90;;;;;;4979124;28;20128;-83
2022/04/26 04:06:30;;;;;;;33.63;15.63;;;5.70;99.90;;;;;;4978899;28;20046;-83
2022/04/26 04:08:56;;;;;;;32.22;15.02;;;5.70;99.90;;;;;;4979053;28;20406;-83
2022/04/26 04:11:22;;;;;;;31.35;14.30;;;5.70;99.90;;;;;;4978843;28;20099;-83
2022/04/26 04:13:48;;;;;;;32.25;14.52;;;5.80;99.90;;;;;;4979073;28;20059;-83
2022/04/26 04:16:14;;;;;;;33.92;14.38;;;5.80;99.90;;;;;;4978953;28;20470;-83
2022/04/26 04:21:24;;;;;;;30.33;14.38;;;5.80;99.90;;;;;;4961609;28;20138;-83
2022/04/26 04:23:49;;;;;;;25.67;13.27;;;5.90;99.90;;;;;;4978721;28;20071;-84
2022/04/26 04:26:15;;;;;;;28.55;13.40;;;5.90;99.90;;;;;;4977618;28;20182;-84
2022/04/26 04:28:41;;;;;;;24.67;11.93;;;6.00;99.90;;;;;;4978473;28;20181;-83
2022/04/26 04:31:08;;;;;;;23.13;12.50;;;6.00;99.90;;;;;;4961815;28;20039;-83
2022/04/26 04:33:33;;;;;;;28.08;11.93;;;6.10;99.90;;;;;;4978748;28;20047;-83
2022/04/26 04:35:59;;;;;;;17.27;10.88;;;6.10;99.90;;;;;;4978247;28;20047;-84
2022/04/26 04:38:26;;;;;;;22.42;9.35;;;6.10;99.90;;;;;;4978903;28;20039;-84
2022/04/26 04:40:52;;;;;;;22.27;10.30;;;6.10;99.90;;;;;;4978021;28;20090;-83
2022/04/26 04:43:18;;;;;;;25.80;10.30;;;6.20;99.90;;;;;;4977831;28;20046;-84
2022/04/26 04:45:44;;;;;;;26.38;10.90;;;6.20;99.90;;;;;;4978879;28;21082;-84
2022/04/26 04:48:09;;;;;;;28.80;9.55;;;6.20;99.90;;;;;;4962328;28;20057;-83
2022/04/26 04:50:35;;;;;;;18.38;8.52;;;6.20;99.90;;;;;;4979492;28;20055;-83
2022/04/26 04:53:02;;;;;;;22.20;8.43;;;6.20;99.90;;;;;;4960826;28;20130;-83
2022/04/26 04:55:28;;;;;;;16.83;7.95;;;6.20;99.90;;;;;;4976516;28;20061;-84
2022/04/26 04:57:53;;;;;;;15.30;7.63;;;6.20;99.90;;;;;;4976341;28;20062;-84
2022/04/26 05:00:19;;;;;;;19.20;7.88;;;6.20;99.90;;;;;;4976425;28;20050;-83
2022/04/26 05:02:44;;;;;;;23.75;7.78;;;6.20;99.90;;;;;;4976678;28;20136;-83
2022/04/26 05:05:10;;;;;;;16.58;7.57;;;6.20;99.90;;;;;;4976773;28;20042;-83
2022/04/26 05:07:36;;;;;;;15.27;6.88;;;6.20;99.90;;;;;;4976849;28;20406;-83
2022/04/26 05:10:03;;;;;;;26.23;7.55;;;6.20;99.90;;;;;;4976293;28;20043;-83
2022/04/26 05:12:29;;;;;;;14.68;6.90;;;6.30;99.90;;;;;;4973561;28;20038;-83
2022/04/26 05:14:54;;;;;;;23.38;8.23;;;6.40;99.90;;;;;;4974981;28;20039;-83
2022/04/26 05:17:20;;;;;;;17.55;7.70;;;6.50;99.90;;;;;;4974566;28;20158;-83
2022/04/26 05:19:45;;;;;;;18.85;6.97;;;6.60;99.90;;;;;;4975279;28;20042;-84
2022/04/26 05:22:11;;;;;;;21.95;7.55;;;6.70;99.90;;;;;;4975165;28;20038;-83
2022/04/26 05:24:58;;;;;;;16.13;7.30;;;6.80;99.90;;;;;;4976527;28;20129;-82
2022/04/26 05:27:24;;;;;;;;;;;6.90;99.90;;;;;;4976907;28;20055;-83
2022/04/26 05:29:50;;;;;;;19.67;6.88;;;7.00;99.90;;;;;;4977016;28;20296;-83
2022/04/26 05:32:23;;;;;;;18.95;6.93;;;7.00;99.90;;;;;;4960252;28;20121;-83
2022/04/26 05:34:56;;;;;;;16.92;6.63;;;6.90;99.90;;;;;;4976745;28;20054;-83
2022/04/26 05:37:21;;;;;;;20.63;7.22;;;7.00;99.90;;;;;;4976973;28;20066;-83
2022/04/26 05:39:47;;;;;;;20.80;7.38;;;7.00;99.90;;;;;;4976861;28;20500;-83
2022/04/26 05:42:13;;;;;;;16.17;5.78;;;7.10;99.90;;;;;;4977871;28;20047;-83
2022/04/26 05:44:38;;;;;;;14.98;5.72;;;7.20;99.90;;;;;;4978404;28;20397;-83
2022/04/26 05:47:07;;;;;;;21.73;7.05;;;7.30;99.90;;;;;;4978530;28;20123;-83
2022/04/26 05:49:33;;;;;;;13.23;5.18;;;7.40;99.90;;;;;;4977544;28;20094;-83
2022/04/26 05:51:59;;;;;;;19.92;6.20;;;7.50;99.90;;;;;;4976317;28;20096;-83
2022/04/26 05:54:24;;;;;;;16.35;6.03;;;7.60;99.90;;;;;;4976966;28;20118;-83
2022/04/26 05:56:52;;;;;;;16.50;5.22;;;7.60;99.90;;;;;;4976522;28;20059;-82
2022/04/26 05:59:18;;;;;;;14.07;5.03;;;7.60;99.90;;;;;;4977398;28;20050;-83
2022/04/26 06:01:44;;;;;;;18.55;5.65;;;7.70;99.90;;;;;;4976657;28;20050;-83
2022/04/26 06:04:10;;;;;;;10.88;5.45;;;7.70;99.90;;;;;;4976391;28;20042;-83
2022/04/26 06:06:35;;;;;;;17.88;5.43;;;7.70;99.90;;;;;;4976534;28;20051;-83
2022/04/26 06:09:02;;;;;;;17.20;4.75;;;7.80;99.90;;;;;;4972006;28;20035;-83
2022/04/26 06:11:27;;;;;;;14.93;5.68;;;7.90;99.90;;;;;;4965671;28;20043;-83
2022/04/26 06:13:53;;;;;;;11.20;4.47;;;8.40;99.90;;;;;;4974070;28;20046;-83
2022/04/26 06:16:19;;;;;;;27.95;5.10;;;8.90;99.90;;;;;;4974495;28;20094;-84
2022/04/26 06:18:45;;;;;;;16.00;4.53;;;9.10;99.90;;;;;;4957305;28;20192;-83
2022/04/26 06:21:10;;;;;;;11.32;3.33;;;9.20;99.90;;;;;;4974320;28;20119;-84
2022/04/26 06:23:36;;;;;;;14.70;4.32;;;9.40;99.90;;;;;;4965846;28;20171;-84
2022/04/26 06:26:01;;;;;;;14.85;3.85;;;9.40;99.90;;;;;;4963317;28;20054;-83
2022/04/26 06:28:27;;;;;;;11.90;3.58;;;9.10;99.90;;;;;;4955079;29;20051;-83
2022/04/26 06:30:54;;;;;;;13.35;4.13;;;8.90;99.90;;;;;;4956814;29;20490;-83
2022/04/26 06:33:20;;;;;;;12.35;4.55;;;8.70;99.90;;;;;;4955285;29;20122;-83
2022/04/26 06:35:45;;;;;;;17.67;4.72;;;8.80;99.90;;;;;;4955452;29;20122;-83
2022/04/26 06:38:11;;;;;;;17.98;5.20;;;8.80;99.90;;;;;;4956315;28;20091;-83
2022/04/26 06:40:36;;;;;;;11.75;4.43;;;8.90;99.90;;;;;;4954687;29;20047;-83
2022/04/26 06:43:02;;;;;;;10.82;3.85;;;8.80;99.90;;;;;;4954987;29;20086;-84
2022/04/26 06:45:28;;;;;;;13.20;4.80;;;8.70;99.90;;;;;;4954630;29;20090;-84
2022/04/26 06:47:56;;;;;;;9.43;3.92;;;8.80;99.90;;;;;;4955007;28;20047;-84
2022/04/26 06:50:22;;;;;;;20.02;4.90;;;8.90;99.90;;;;;;4958219;29;20043;-84
2022/04/26 06:52:48;;;;;;;8.38;3.35;;;9.20;99.90;;;;;;4958684;29;20047;-84
2022/04/26 06:55:14;;;;;;;11.38;3.72;;;9.40;99.90;;;;;;4958593;29;20769;-84
2022/04/26 06:57:40;;;;;;;14.73;4.60;;;9.40;99.90;;;;;;4925591;29;20114;-84
2022/04/26 07:00:09;;;;;;;13.85;3.97;;;9.40;99.90;;;;;;4958796;29;20054;-83
2022/04/26 07:02:35;;;;;;;6.88;3.05;;;9.60;99.90;;;;;;4959307;29;20331;-84
2022/04/26 07:05:01;;;;;;;14.43;3.85;;;10.00;99.90;;;;;;4943095;29;20073;-83
2022/04/26 07:07:27;;;;;;;9.23;3.60;;;9.80;99.90;;;;;;4958930;29;20062;-84
2022/04/26 07:09:52;;;;;;;6.93;2.60;;;9.70;99.90;;;;;;4957002;29;20050;-84
2022/04/26 07:12:18;;;;;;;8.73;3.00;;;9.50;99.90;;;;;;4956886;29;20062;-84
2022/04/26 07:14:43;;;;;;;8.38;2.65;;;9.50;99.90;;;;;;4956512;29;20154;-85
2022/04/26 07:17:11;;;;;;;12.27;2.80;;;9.70;99.90;;;;;;4956832;29;20047;-85
2022/04/26 07:19:37;;;;;;;14.48;2.90;;;9.60;99.90;;;;;;4956252;29;20130;-85
2022/04/26 07:22:03;;;;;;;8.73;2.30;;;9.90;99.90;;;;;;4956469;29;20661;-85
2022/04/26 07:24:33;;;;;;;8.40;2.65;;;10.00;99.90;;;;;;4956581;29;20050;-85
2022/04/26 07:26:59;;;;;;;10.35;3.05;;;9.60;99.90;;;;;;4956572;28;20058;-83
2022/04/26 07:29:24;;;;;;;14.15;3.60;;;9.40;99.90;;;;;;4956075;29;20051;-83
2022/04/26 07:31:50;;;;;;;6.97;2.17;;;9.40;99.90;;;;;;4971152;28;20101;-83
2022/04/26 07:34:21;;;;;;;19.40;4.35;;;10.30;99.90;;;;;;4974920;28;20061;-83
2022/04/26 07:36:52;;;;;;;9.73;2.35;;;11.10;99.90;;;;;;4975417;28;20042;-84
2022/04/26 07:39:18;;;;;;;5.45;2.13;;;11.70;99.90;;;;;;4975307;28;20450;-84
2022/04/26 07:41:48;;;;;;;6.82;2.35;;;12.20;99.90;;;;;;4975055;28;20125;-83
2022/04/26 07:44:14;;;;;;;7.40;2.38;;;12.90;99.90;;;;;;4962355;28;20047;-84
2022/04/26 07:46:43;;;;;;;10.88;3.70;;;12.40;99.90;;;;;;4955458;29;20050;-84
2022/04/26 07:49:10;;;;;;;9.57;2.58;;;11.70;99.90;;;;;;4956410;29;20047;-84
2022/04/26 07:51:36;;;;;;;11.98;2.67;;;11.30;99.90;;;;;;4960469;29;20051;-84
2022/04/26 07:54:02;;;;;;;8.40;2.67;;;11.00;99.90;;;;;;4957667;29;20401;-84
2022/04/26 07:56:27;;;;;;;7.35;2.20;;;11.80;99.90;;;;;;4956684;28;20051;-84
2022/04/26 07:58:54;;;;;;;7.65;2.03;;;10.20;99.90;;;;;;4958200;29;20062;-84
2022/04/26 08:01:20;;;;;;;8.77;2.47;;;10.20;99.90;;;;;;4957711;28;20414;-84
2022/04/26 08:03:45;;;;;;;10.60;3.17;;;10.20;99.90;;;;;;4958026;29;20051;-83
2022/04/26 08:06:11;;;;;;;7.95;2.15;;;10.30;99.90;;;;;;4940861;29;20074;-84
2022/04/26 08:08:37;;;;;;;6.00;1.70;;;10.60;99.90;;;;;;4956835;29;20043;-84
2022/04/26 08:11:03;;;;;;;14.63;3.47;;;10.60;99.90;;;;;;4960297;28;20042;-84
2022/04/26 08:13:29;;;;;;;12.98;3.10;;;10.60;99.90;;;;;;4967041;28;20568;-82
2022/04/26 08:15:54;;;;;;;4.93;1.80;;;11.20;99.90;;;;;;4973573;28;20360;-83
2022/04/26 08:18:20;;;;;;;6.50;1.83;;;11.40;99.90;;;;;;4977064;28;20049;-84
2022/04/26 08:20:46;;;;;;;6.20;2.05;;;11.20;99.90;;;;;;4967662;28;20039;-84
2022/04/26 08:23:12;;;;;;;7.63;2.10;;;11.20;99.90;;;;;;4968005;28;20118;-82
2022/04/26 08:28:22;;;;;;;9.00;2.83;;;12.50;99.30;;;;;;4975972;28;20050;-84
2022/04/26 08:30:48;;;;;;;9.38;2.10;;;13.10;92.00;;;;;;4974753;28;20061;-84
2022/04/26 08:33:13;;;;;;;10.07;2.60;;;12.70;91.50;;;;;;4974018;28;20477;-83
2022/04/26 08:35:39;;;;;;;11.57;2.22;;;12.80;94.10;;;;;;4974431;28;20054;-83
2022/04/26 08:38:05;;;;;;;12.30;2.45;;;13.10;91.00;;;;;;4974490;28;20038;-84
2022/04/26 08:40:31;;;;;;;7.93;2.22;;;13.80;83.00;;;;;;4973902;28;20047;-78
2022/04/26 08:42:59;;;;;;;11.00;2.47;;;14.00;86.70;;;;;;4975658;28;20054;-82
2022/04/26 08:45:24;;;;;;;5.30;1.45;;;13.90;70.70;;;;;;4975910;28;20042;-83
2022/04/26 08:53:23;;;;;;;7.68;2.25;;;13.30;84.90;;;;;;4975801;28;20050;-84
2022/04/26 08:55:51;;;;;;;6.45;2.33;;;13.10;83.00;;;;;;4957834;28;20046;-83
2022/04/26 08:58:21;;;;;;;6.18;2.55;;;12.80;84.70;;;;;;4974908;28;20049;-83
2022/04/26 09:01:13;;;;;;;7.60;2.22;;;12.80;89.60;;;;;;4975338;28;20050;-83
2022/04/26 09:03:54;;;;;;;4.90;1.77;;;13.50;80.20;;;;;;4975678;28;20046;-83
2022/04/26 09:06:34;;;;;;;11.23;2.53;;;13.60;83.30;;;;;;4975701;28;20055;-84
2022/04/26 09:09:08;;;;;;;6.15;2.13;;;13.60;71.90;;;;;;4975236;28;20058;-84
2022/04/26 09:11:35;;;;;;;5.53;2.00;;;14.20;65.50;;;;;;4974262;28;20102;-82
2022/04/26 09:14:03;;;;;;;10.00;2.17;;;13.70;61.60;;;;;;4973793;28;20047;-82
2022/04/26 09:16:29;;;;;;;7.13;1.92;;;13.90;64.10;;;;;;4975358;28;20075;-83
2022/04/26 09:19:00;;;;;;;7.32;2.00;;;13.80;56.10;;;;;;4975641;28;20058;-83
2022/04/26 09:21:29;;;;;;;6.65;2.05;;;14.00;61.00;;;;;;4975328;28;20047;-82
2022/04/26 09:24:06;;;;;;;12.88;2.75;;;14.40;68.20;;;;;;4973935;28;20062;-83
2022/04/26 09:26:36;;;;;;;5.53;1.83;;;14.70;59.10;;;;;;4974695;28;20494;-83
2022/04/26 09:29:03;;;;;;;7.57;1.95;;;14.90;47.70;;;;;;4975106;28;20046;-84
2022/04/26 09:31:31;;;;;;;7.13;2.67;;;15.30;55.90;;;;;;4975908;28;20042;-82
2022/04/26 09:34:04;;;;;;;7.35;1.90;;;15.80;43.90;;;;;;4975346;28;20485;-83
2022/04/26 09:36:31;;;;;;;11.77;3.60;;;15.50;37.30;;;;;;4975665;28;20085;-83
2022/04/26 09:38:59;;;;;;;8.73;2.50;;;15.40;35.60;;;;;;4976819;28;20062;-83
2022/04/26 09:41:29;;;;;;;8.52;2.70;;;15.20;34.60;;;;;;4975931;28;20053;-83
2022/04/26 09:44:09;;;;;;;11.32;2.42;;;14.80;41.20;;;;;;4975406;28;20057;-83
2022/04/26 09:46:55;;;;;;;6.60;2.47;;;14.60;45.60;;;;;;4975515;28;20133;-84
2022/04/26 09:49:22;;;;;;;5.78;2.00;;;14.60;41.90;;;;;;4975543;28;20050;-84
2022/04/26 09:51:58;;;;;;;9.15;2.33;;;14.60;36.10;;;;;;4975048;28;20057;-83
2022/04/26 09:54:23;;;;;;;6.43;2.85;;;14.30;40.50;;;;;;4975659;28;20393;-84
2022/04/26 09:56:49;;;;;;;9.77;2.28;;;14.20;46.70;;;;;;4974744;28;20058;-83
2022/04/26 09:59:27;;;;;;;9.50;2.50;;;14.20;55.10;;;;;;4980869;28;20038;-83
2022/04/26 10:01:58;;;;;;;5.22;1.85;;;13.90;41.10;;;;;;4984272;28;20070;-83
2022/04/26 10:04:29;;;;;;;6.85;2.00;;;13.10;45.90;;;;;;4979958;28;20050;-83
2022/04/26 10:07:05;;;;;;;7.00;2.33;;;13.10;55.40;;;;;;4976285;28;20049;-83
2022/04/26 10:09:31;;;;;;;6.80;2.50;;;13.50;47.90;;;;;;4974607;28;20105;-84
2022/04/26 10:11:59;;;;;;;4.97;2.15;;;13.60;45.20;;;;;;4976143;28;20038;-83
2022/04/26 10:14:28;;;;;;;8.45;2.30;;;14.10;48.30;;;;;;4975578;28;20097;-83
2022/04/26 10:16:54;;;;;;;7.45;2.53;;;14.70;42.30;;;;;;4975412;28;20081;-83
2022/04/26 10:19:42;;;;;;;8.43;3.03;;;14.30;41.70;;;;;;4977065;28;20042;-83
2022/04/26 10:22:10;;;;;;;9.65;2.33;;;14.60;37.20;;;;;;4978381;28;20058;-82
2022/04/26 10:24:36;;;;;;;4.85;2.10;;;14.50;41.70;;;;;;4976815;28;20070;-81
2022/04/26 10:27:20;;;;;;;6.45;1.90;;;14.50;37.50;;;;;;4980882;28;20043;-82
2022/04/26 10:29:46;;;;;;;7.10;2.53;;;13.90;44.90;;;;;;4980346;28;20062;-80
2022/04/26 10:32:27;;;;;;;9.75;2.00;;;13.50;48.10;;;;;;4975657;28;20054;-79
2022/04/26 10:34:52;;;;;;;9.75;2.33;;;13.70;53.80;;;;;;4978845;28;20053;-79
2022/04/26 10:37:18;;;;;;;10.77;2.97;;;13.80;50.40;;;;;;4973583;28;20039;-79
2022/04/26 10:39:46;;;;;;;4.55;2.15;;;13.90;46.00;;;;;;4975328;28;20047;-79
2022/04/26 10:42:15;;;;;;;6.32;2.70;;;14.10;45.50;;;;;;4985366;28;20042;-79
2022/04/26 10:44:42;;;;;;;9.70;2.58;;;14.10;46.10;;;;;;4977481;28;20502;-79
2022/04/26 10:47:08;;;;;;;11.15;2.92;;;14.40;36.90;;;;;;4977917;28;20051;-79
2022/04/26 10:49:43;;;;;;;17.52;3.72;;;14.70;41.00;;;;;;4959720;28;20062;-79
2022/04/26 10:52:26;;;;;;;8.88;3.05;;;14.50;31.80;;;;;;4976731;28;20050;-80
2022/04/26 10:54:55;;;;;;;13.93;2.83;;;13.60;33.70;;;;;;4977324;28;20135;-80
2022/04/26 10:57:29;;;;;;;7.22;2.72;;;13.80;41.20;;;;;;4975139;28;20509;-80
2022/04/26 10:59:57;;;;;;;8.40;2.55;;;13.90;34.00;;;;;;4974134;28;20409;-80
2022/04/26 11:02:25;;;;;;;6.30;2.65;;;14.40;37.90;;;;;;4977531;28;20057;-80
2022/04/26 11:05:03;;;;;;;9.95;2.42;;;14.50;32.50;;;;;;4975304;28;20047;-80
2022/04/26 11:07:29;;;;;;;10.63;3.45;;;14.30;33.20;;;;;;4976169;28;20051;-80
2022/04/26 11:09:59;;;;;;;13.55;3.33;;;14.00;36.70;;;;;;4976578;28;20039;-80
2022/04/26 11:12:29;;;;;;;93.68;9.82;;;13.90;38.70;;;;;;4978174;28;20169;-80
2022/04/26 11:14:57;;;;;;;9.05;2.15;;;13.90;36.10;;;;;;4969139;28;20043;-80
2022/04/26 12:01:21;;;;;;;6.13;2.83;;;16.70;13.50;;;;;;5175890;27;20380;-82
2022/04/26 12:03:49;;;;;;;6.18;2.33;;;15.70;18.00;;;;;;5157620;27;20055;-84
2022/04/26 12:06:27;;;;;;;5.28;2.17;;;15.20;16.20;;;;;;5172098;27;20055;-85
2022/04/26 12:09:03;;;;;;;6.95;2.35;;;15.10;21.00;;;;;;5164547;27;20027;-86
2022/04/26 12:11:32;;;;;;;6.75;2.17;;;15.40;17.90;;;;;;5139508;27;20100;-84
2022/04/26 12:18:14;;;;;;;7.00;2.25;;;17.30;11.40;;;;;;5135661;28;20038;-84
2022/04/26 12:20:57;;;;;;;8.48;2.22;;;17.30;9.40;;;;;;5137904;28;20043;-84
2022/04/26 12:23:23;;;;;;;5.07;2.05;;;16.60;11.20;;;;;;5138871;28;20042;-85
2022/04/26 12:26:15;;;;;;;8.98;2.20;;;16.90;7.40;;;;;;5118278;28;20035;-85
2022/04/26 12:28:49;;;;;;;5.40;2.20;;;16.50;6.20;;;;;;5128774;28;20396;-83
2022/04/26 12:31:22;;;;;;;7.97;2.20;;;16.80;5.90;;;;;;5132588;28;20040;-86
2022/04/26 12:33:52;;;;;;;6.88;2.13;;;16.70;5.90;;;;;;5128031;27;20486;-85
2022/04/26 12:36:17;;;;;;;8.07;2.17;;;16.10;7.60;;;;;;5130250;27;20047;-85
2022/04/26 12:38:47;;;;;;;5.05;1.98;;;16.20;8.20;;;;;;5130746;28;20580;-86
2022/04/26 12:41:13;;;;;;;9.13;2.75;;;16.00;4.80;;;;;;5112692;28;20055;-86
2022/04/26 12:43:39;;;;;;;5.65;2.00;;;16.80;7.10;;;;;;5131922;28;20101;-88
2022/04/26 12:46:06;;;;;;;4.07;1.77;;;17.00;4.30;;;;;;5131541;28;20047;-86
2022/04/26 12:51:24;;;;;;;4.10;1.80;;;14.90;7.40;;;;;;5123884;27;20150;-86
2022/04/26 12:53:51;;;;;;;4.07;1.60;;;16.10;9.60;;;;;;5123553;28;20415;-85
2022/04/26 12:56:19;;;;;;;6.97;2.35;;;17.60;6.90;;;;;;5143007;27;20044;-86
2022/04/26 12:58:48;;;;;;;7.60;1.98;;;17.90;3.90;;;;;;5134012;28;20067;-85
2022/04/26 13:01:15;;;;;;;6.10;2.08;;;16.70;5.60;;;;;;5118894;27;20059;-86
2022/04/26 13:03:45;;;;;;;9.45;2.95;;;17.20;8.20;;;;;;5112388;28;20047;-85
2022/04/26 13:06:17;;;;;;;8.88;1.92;;;16.80;6.00;;;;;;5103068;28;20134;-85
2022/04/26 13:08:51;;;;;;;6.03;1.98;;;16.50;6.40;;;;;;5101257;28;20055;-85
2022/04/26 13:11:18;;;;;;;4.07;2.20;;;15.10;9.50;;;;;;5099374;28;20079;-85
2022/04/26 13:13:49;;;;;;;5.82;2.10;;;14.70;12.80;;;;;;5099959;28;20092;-85
2022/04/26 13:16:16;;;;;;;9.98;2.70;;;15.90;11.70;;;;;;5102336;28;20044;-85
2022/04/26 13:18:42;;;;;;;8.77;2.13;;;16.60;10.30;;;;;;5112997;28;20086;-86
2022/04/26 13:21:08;;;;;;;5.95;2.08;;;17.50;9.70;;;;;;5115203;28;20040;-84
2022/04/26 13:23:34;;;;;;;9.88;2.05;;;17.30;5.60;;;;;;5113202;28;20040;-83
2022/04/26 13:26:01;;;;;;;9.25;2.03;;;17.00;7.20;;;;;;5098329;28;20055;-83
2022/04/26 13:28:28;;;;;;;5.53;1.95;;;16.70;6.10;;;;;;5107886;28;20039;-84
2022/04/26 13:30:53;;;;;;;10.20;2.30;;;16.70;5.40;;;;;;5106292;28;20043;-86
2022/04/26 13:33:19;;;;;;;15.82;2.83;;;17.40;3.10;;;;;;5101306;28;20463;-85
2022/04/26 13:35:46;;;;;;;12.20;2.10;;;17.80;5.20;;;;;;5097477;28;20101;-86
2022/04/26 13:38:13;;;;;;;7.60;2.22;;;18.30;6.50;;;;;;5098391;28;20040;-86
2022/04/26 13:40:40;;;;;;;10.60;2.78;;;18.20;5.70;;;;;;5096333;28;20052;-83
2022/04/26 13:43:07;;;;;;;4.72;1.80;;;17.50;4.00;;;;;;5109702;28;20065;-83
2022/04/26 13:45:34;;;;;;;6.63;1.90;;;16.50;6.00;;;;;;5116740;28;20047;-83
2022/04/26 13:48:01;;;;;;;6.55;2.13;;;15.60;9.60;;;;;;5116432;28;20115;-83
2022/04/26 13:50:29;;;;;;;6.47;2.58;;;15.40;9.30;;;;;;5115837;28;20048;-83
2022/04/26 13:52:55;;;;;;;3.83;2.00;;;15.00;11.20;;;;;;5116281;28;20058;-83
2022/04/26 13:55:20;;;;;;;4.47;1.70;;;14.40;14.60;;;;;;5116703;28;20032;-83
2022/04/26 13:57:46;;;;;;;5.38;2.10;;;15.80;11.20;;;;;;5117232;28;20043;-83
2022/04/26 14:00:15;;;;;;;12.02;2.35;;;16.60;12.30;;;;;;5116600;28;20075;-83
2022/04/26 14:02:41;;;;;;;32.22;4.00;;;16.80;11.70;;;;;;5117559;28;20034;-83
2022/04/26 14:05:07;;;;;;;6.78;1.92;;;17.60;3.80;;;;;;5115968;28;20040;-84
2022/04/26 14:07:33;;;;;;;5.00;1.80;;;18.10;3.70;;;;;;5121926;28;20036;-84
2022/04/26 14:09:58;;;;;;;6.97;1.95;;;19.40;4.00;;;;;;5131004;28;20044;-85
2022/04/26 14:12:24;;;;;;;4.70;2.03;;;21.20;1.00;;;;;;5136822;27;20055;-84
2022/04/26 14:23:03;;;;;;;3.88;1.70;;;19.20;1.00;;;;;;5135714;28;20043;-83
2022/04/26 14:25:29;;;;;;;6.18;1.63;;;19.40;1.00;;;;;;5136011;28;20039;-84
2022/04/26 14:27:54;;;;;;;4.82;2.10;;;20.50;1.00;;;;;;5134635;28;20031;-84
2022/04/26 14:30:20;;;;;;;7.72;2.60;;;21.10;1.00;;;;;;5127686;27;20294;-84
2022/04/26 14:32:45;;;;;;;8.65;2.15;;;20.90;1.00;;;;;;5115395;28;20083;-84
2022/04/26 14:35:11;;;;;;;8.98;2.47;;;21.60;1.00;;;;;;5132723;27;20040;-84
2022/04/26 14:37:37;;;;;;;9.27;2.20;;;20.60;1.00;;;;;;5135804;28;20032;-83
2022/04/26 14:40:12;;;;;;;5.95;2.10;;;18.10;1.00;;;;;;5134536;28;20089;-83
2022/04/26 14:42:38;;;;;;;6.07;2.40;;;15.50;5.00;;;;;;5134156;28;20050;-83
2022/04/26 14:45:05;;;;;;;6.75;2.13;;;13.90;14.00;;;;;;5134427;28;20024;-83
2022/04/26 14:47:31;;;;;;;8.27;2.08;;;13.30;20.80;;;;;;5133031;28;20023;-83
2022/04/26 14:49:57;;;;;;;6.10;2.65;;;13.10;26.40;;;;;;5135301;28;20037;-83
2022/04/26 14:52:26;;;;;;;5.00;2.45;;;12.80;28.70;;;;;;5135030;28;20043;-83
2022/04/26 14:54:52;;;;;;;10.15;3.38;;;12.60;32.60;;;;;;5134066;28;20035;-83
2022/04/26 14:57:18;;;;;;;10.77;2.60;;;12.50;36.30;;;;;;5135301;28;20043;-83
2022/04/26 14:59:47;;;;;;;7.20;2.75;;;12.50;36.90;;;;;;5135381;28;20117;-83
2022/04/26 15:02:14;;;;;;;8.43;2.90;;;12.60;37.80;;;;;;5134662;28;20069;-83
2022/04/26 15:04:40;;;;;;;4.97;2.25;;;13.60;35.10;;;;;;5133399;28;20040;-83
2022/04/26 15:07:06;;;;;;;6.80;2.80;;;14.40;25.40;;;;;;5133977;28;20057;-83
2022/04/26 15:09:44;;;;;;;7.97;2.60;;;14.60;21.40;;;;;;5133424;28;20036;-83
2022/04/26 15:17:48;;;;;;;11.73;2.83;;;15.40;14.80;;;;;;5132343;28;20062;-83
2022/04/26 15:20:15;;;;;;;6.70;2.10;;;15.60;13.80;;;;;;5130519;27;20048;-83
2022/04/26 15:22:41;;;;;;;4.43;1.90;;;15.90;14.30;;;;;;5133608;28;20067;-83
2022/04/26 15:25:08;;;;;;;6.20;1.80;;;16.30;10.20;;;;;;5132569;28;20071;-83
2022/04/26 15:27:37;;;;;;;6.88;2.72;;;16.20;9.00;;;;;;5131646;28;20099;-83
2022/04/26 15:30:05;;;;;;;5.05;1.75;;;16.10;9.30;;;;;;5128737;28;20046;-83
2022/04/26 15:32:33;;;;;;;6.60;2.17;;;16.70;5.70;;;;;;5129378;28;20036;-83
2022/04/26 15:34:58;;;;;;;6.43;2.05;;;16.80;4.50;;;;;;5128770;28;20088;-83
2022/04/26 15:37:25;;;;;;;5.22;1.95;;;16.60;3.00;;;;;;5126525;28;20070;-84
2022/04/26 15:39:52;;;;;;;5.28;1.73;;;16.60;4.60;;;;;;5119618;28;20078;-83
2022/04/26 15:42:18;;;;;;;13.30;2.00;;;17.20;3.00;;;;;;5120975;28;20046;-84
2022/04/26 15:44:45;;;;;;;5.88;1.85;;;17.50;2.40;;;;;;5127370;28;20057;-84
2022/04/26 15:47:11;;;;;;;8.05;2.25;;;17.90;1.40;;;;;;5122484;28;20090;-84
2022/04/26 15:49:36;;;;;;;9.73;2.30;;;17.90;1.00;;;;;;5121274;28;20047;-84
2022/04/26 15:52:02;;;;;;;4.43;1.75;;;17.70;1.30;;;;;;5120222;28;20043;-83
2022/04/26 15:54:28;;;;;;;4.53;2.00;;;17.60;1.80;;;;;;5118478;28;20471;-83
2022/04/26 15:56:53;;;;;;;5.55;2.08;;;18.00;1.00;;;;;;5120368;28;20028;-84
2022/04/26 15:59:19;;;;;;;6.60;2.05;;;18.30;1.00;;;;;;5117172;28;20040;-83
2022/04/26 16:01:46;;;;;;;4.80;1.95;;;18.70;1.00;;;;;;5117363;28;20511;-83
2022/04/26 16:04:12;;;;;;;9.57;1.70;;;18.60;1.00;;;;;;5117196;28;20082;-83
2022/04/26 16:06:39;;;;;;;3.03;1.48;;;18.10;1.00;;;;;;5116383;28;20059;-83
2022/04/26 16:22:51;;;;;;;7.57;2.33;;;17.20;1.30;;;;;;5115708;28;20035;-83
2022/04/26 16:25:17;;;;;;;5.88;2.25;;;17.30;1.00;;;;;;5116177;28;20044;-83
2022/04/26 16:27:43;;;;;;;5.88;1.85;;;16.60;1.50;;;;;;5115932;28;20548;-83
2022/04/26 16:30:10;;;;;;;4.53;1.98;;;16.00;1.00;;;;;;5114109;28;20147;-83
2022/04/26 16:32:35;;;;;;;7.35;2.00;;;16.00;2.30;;;;;;5113594;28;20048;-83
2022/04/26 16:35:01;;;;;;;7.65;1.65;;;16.10;3.80;;;;;;5113958;28;20047;-83
2022/04/26 16:37:27;;;;;;;5.90;2.10;;;16.60;2.70;;;;;;5116760;28;20460;-83
2022/04/26 16:39:53;;;;;;;3.90;1.77;;;16.70;1.40;;;;;;5118922;28;20043;-83
2022/04/26 16:42:18;;;;;;;9.95;1.83;;;16.50;2.60;;;;;;5117855;28;20039;-83
2022/04/26 16:44:44;;;;;;;5.78;1.92;;;16.30;3.40;;;;;;5118202;28;20127;-82
2022/04/26 16:47:10;;;;;;;3.72;1.90;;;16.60;2.40;;;;;;5118235;28;20036;-83
2022/04/26 16:49:36;;;;;;;5.75;1.90;;;16.40;3.40;;;;;;5118314;28;20101;-83
2022/04/26 16:52:04;;;;;;;7.50;2.80;;;14.90;5.00;;;;;;5116629;28;20130;-83
2022/04/26 16:54:29;;;;;;;7.68;2.10;;;14.20;7.80;;;;;;5116877;28;20054;-83
2022/04/26 16:56:55;;;;;;;140.05;15.02;;;13.60;12.20;;;;;;5117416;28;20518;-82
2022/04/26 16:59:22;;;;;;;6.63;1.83;;;13.60;13.90;;;;;;5118672;28;20075;-82
2022/04/26 17:01:48;;;;;;;7.47;2.55;;;13.40;15.20;;;;;;5119469;28;20085;-83
2022/04/26 17:04:14;;;;;;;5.25;2.15;;;13.10;17.00;;;;;;5117933;28;20036;-82
2022/04/26 17:06:40;;;;;;;3.58;1.60;;;13.00;17.50;;;;;;5118060;28;20039;-83
2022/04/26 17:09:07;;;;;;;3.38;1.55;;;12.90;17.80;;;;;;5117277;28;20036;-83
2022/04/26 17:11:42;;;;;;;5.22;1.80;;;12.80;19.20;;;;;;5117744;28;20050;-82
2022/04/26 17:14:10;;;;;;;8.35;1.92;;;12.60;19.80;;;;;;5117750;28;20051;-82
2022/04/26 17:16:36;;;;;;;7.78;2.63;;;12.60;20.00;;;;;;5118548;28;20046;-82
2022/04/26 17:19:04;;;;;;;6.18;2.50;;;12.20;21.90;;;;;;5119623;28;20415;-82
2022/04/26 17:21:32;;;;;;;4.70;2.00;;;11.60;27.90;;;;;;5119344;28;20052;-82
2022/04/26 17:23:57;;;;;;;5.65;2.38;;;11.20;34.70;;;;;;5119600;28;20123;-82
2022/04/26 17:26:24;;;;;;;6.50;2.63;;;10.90;37.70;;;;;;5120209;28;20067;-82
2022/04/26 17:28:49;;;;;;;6.38;2.33;;;10.70;39.30;;;;;;5119495;28;20040;-81
2022/04/26 17:31:15;;;;;;;6.88;2.50;;;10.40;45.70;;;;;;5119856;28;20144;-82
2022/04/26 17:33:42;;;;;;;7.13;1.95;;;10.20;50.50;;;;;;5120366;28;20039;-81
2022/04/26 17:36:08;;;;;;;6.63;2.60;;;10.10;53.50;;;;;;5119367;28;20395;-82
2022/04/26 17:38:34;;;;;;;12.70;2.90;;;10.00;58.50;;;;;;5121888;28;20047;-81
2022/04/26 17:41:00;;;;;;;5.03;2.05;;;10.00;60.40;;;;;;5120434;28;20044;-81
2022/04/26 17:43:26;;;;;;;6.35;2.55;;;9.70;64.10;;;;;;5121989;28;20047;-81
2022/04/26 17:45:52;;;;;;;7.50;2.28;;;9.60;66.00;;;;;;5121837;28;20047;-81
2022/04/26 17:48:18;;;;;;;9.57;2.50;;;9.60;65.40;;;;;;5120243;28;20040;-82
2022/04/26 17:50:44;;;;;;;10.43;2.38;;;9.60;65.50;;;;;;5120855;28;20036;-82
2022/04/26 17:58:42;;;;;;;9.02;2.67;;;9.30;69.10;;;;;;5121699;28;20087;-83
2022/04/26 18:01:08;;;;;;;5.55;2.50;;;9.30;72.60;;;;;;5122973;28;20040;-82